EGVO

Details ICAO EGVO (ODH)
Name RAF Odiham
Region United Kingdom
Timezone Europe/London (UTC+1.0)
Plans Departing 6
Arriving 2
Stats Elevation 405 ft / 123 m (AMSL)
Location 51.234183° -0.942754°
Runways 1
Magnetic Variation 0.637° W
Sunrise 2018-05-24 04:02:55 UTC / 2018-05-24 05:02:55 Local
Sunset 2018-05-24 20:01:10 UTC / 2018-05-24 21:01:10 Local
Advertisement - Login to hide

Runways

ID Width Length Bearing (true) Bearing (mag) Surface Threshold Offset Overrun Length
09 131 ft / 40 m 6,006 ft / 1,831 m 92.60° 93.24° Asphalt 0 ft / 0 m 0 ft / 0 m
27 131 ft / 40 m 6,006 ft / 1,831 m 272.62° 273.26° Asphalt 0 ft / 0 m 0 ft / 0 m

Approach Navaids

Runway Type Ident Frequency Range Bearing (true) Bearing (mag) Slope Elevation
27 Localiser IODH 108.95 MHz 18 nm / 33 km 268.74° 269.37° - 405 ft / 123 m (AMSL)

Map

Weather


0- 5 10 15 20 25 30 35+ Temperature / ° C

Clouds and Precipitation
Forecast for 2018-05-24 06:00 UTC. Updated 3 hours ago

Ground ~20,000 ft ~40,000 ft Winds

METAR

EGVO 240750Z 05008KT 4500 -DZ OVC004 11/10 Q1021 YLO2 BECMG 5000 BKN005 YLO1

TAF

TAF TAF EGVO 240741Z 2409/2421 03008KT 9999 BKN009 PROB40 2409/2410 5000 -RADZ BKN004 BECMG 2410/2412 FEW010 PROB40 TEMPO 2414/2418 6000 SHRA BKN035CB PROB40 TEMPO 2418/2421 4000 +TSGS BKN035CB

Frequencies

Tower 122.10 MHz Odiham Tower
Approach 131.30 MHz Odiham Approach
Warning: Do not use this data for real-world aviation or navigation. No guarantee of current accuracy is given.